sensor_id;sensor_type;location;lat;lon;timestamp;P1;durP1;ratioP1;P2;durP2;ratioP2
34459;SDS011;20704;51.260;22.558;2024-03-02T00:00:15;41.03;;;19.40;;
34459;SDS011;20704;51.260;22.558;2024-03-02T00:04:44;39.92;;;19.77;;
34459;SDS011;20704;51.260;22.558;2024-03-02T00:06:47;38.42;;;19.92;;
34459;SDS011;20704;51.260;22.558;2024-03-02T00:08:57;43.05;;;19.10;;
34459;SDS011;20704;51.260;22.558;2024-03-02T00:11:01;44.85;;;20.65;;
34459;SDS011;20704;51.260;22.558;2024-03-02T00:13:07;38.03;;;19.80;;
34459;SDS011;20704;51.260;22.558;2024-03-02T00:15:31;47.90;;;20.63;;
34459;SDS011;20704;51.260;22.558;2024-03-02T00:17:37;42.53;;;19.02;;
34459;SDS011;20704;51.260;22.558;2024-03-02T00:19:40;49.88;;;20.33;;
34459;SDS011;20704;51.260;22.558;2024-03-02T00:21:43;46.92;;;21.25;;
34459;SDS011;20704;51.260;22.558;2024-03-02T00:23:53;45.80;;;19.95;;
34459;SDS011;20704;51.260;22.558;2024-03-02T00:25:55;47.70;;;20.80;;
34459;SDS011;20704;51.260;22.558;2024-03-02T00:27:58;42.45;;;19.58;;
34459;SDS011;20704;51.260;22.558;2024-03-02T00:30:01;40.50;;;20.10;;
34459;SDS011;20704;51.260;22.558;2024-03-02T00:32:28;43.63;;;21.27;;
34459;SDS011;20704;51.260;22.558;2024-03-02T00:34:32;44.15;;;19.80;;
34459;SDS011;20704;51.260;22.558;2024-03-02T00:36:35;50.50;;;21.15;;
34459;SDS011;20704;51.260;22.558;2024-03-02T00:40:49;50.13;;;21.40;;
34459;SDS011;20704;51.260;22.558;2024-03-02T00:42:52;50.45;;;22.98;;
34459;SDS011;20704;51.260;22.558;2024-03-02T00:44:56;44.00;;;19.08;;
34459;SDS011;20704;51.260;22.558;2024-03-02T00:46:58;42.72;;;20.50;;
34459;SDS011;20704;51.260;22.558;2024-03-02T00:49:06;51.60;;;23.17;;
34459;SDS011;20704;51.260;22.558;2024-03-02T00:51:23;45.60;;;20.33;;
34459;SDS011;20704;51.260;22.558;2024-03-02T00:53:27;51.17;;;20.50;;
34459;SDS011;20704;51.260;22.558;2024-03-02T00:55:31;53.38;;;21.27;;
34459;SDS011;20704;51.260;22.558;2024-03-02T00:57:40;44.42;;;21.02;;
34459;SDS011;20704;51.260;22.558;2024-03-02T00:59:43;49.30;;;23.00;;
34459;SDS011;20704;51.260;22.558;2024-03-02T01:01:48;44.42;;;22.63;;
34459;SDS011;20704;51.260;22.558;2024-03-02T01:03:51;52.33;;;22.05;;
34459;SDS011;20704;51.260;22.558;2024-03-02T01:05:59;46.47;;;20.65;;
34459;SDS011;20704;51.260;22.558;2024-03-02T01:08:02;57.83;;;22.92;;
34459;SDS011;20704;51.260;22.558;2024-03-02T01:10:08;51.00;;;22.63;;
34459;SDS011;20704;51.260;22.558;2024-03-02T01:12:18;49.45;;;22.13;;
34459;SDS011;20704;51.260;22.558;2024-03-02T01:14:22;49.78;;;22.48;;
34459;SDS011;20704;51.260;22.558;2024-03-02T01:16:30;48.58;;;20.73;;
34459;SDS011;20704;51.260;22.558;2024-03-02T01:18:35;59.60;;;23.77;;
34459;SDS011;20704;51.260;22.558;2024-03-02T01:20:38;50.40;;;20.35;;
34459;SDS011;20704;51.260;22.558;2024-03-02T01:22:42;46.60;;;21.15;;
34459;SDS011;20704;51.260;22.558;2024-03-02T01:24:46;48.40;;;23.75;;
34459;SDS011;20704;51.260;22.558;2024-03-02T01:26:50;43.17;;;20.85;;
34459;SDS011;20704;51.260;22.558;2024-03-02T01:28:52;46.78;;;22.15;;
34459;SDS011;20704;51.260;22.558;2024-03-02T01:31:03;53.75;;;23.00;;
34459;SDS011;20704;51.260;22.558;2024-03-02T01:33:06;49.78;;;23.00;;
34459;SDS011;20704;51.260;22.558;2024-03-02T01:35:10;56.35;;;22.48;;
34459;SDS011;20704;51.260;22.558;2024-03-02T01:37:13;57.03;;;23.73;;
34459;SDS011;20704;51.260;22.558;2024-03-02T01:39:16;53.60;;;23.05;;
34459;SDS011;20704;51.260;22.558;2024-03-02T01:41:19;49.22;;;23.15;;
34459;SDS011;20704;51.260;22.558;2024-03-02T01:43:22;52.03;;;24.15;;
34459;SDS011;20704;51.260;22.558;2024-03-02T01:45:25;49.00;;;23.48;;
34459;SDS011;20704;51.260;22.558;2024-03-02T01:47:31;54.00;;;22.40;;
34459;SDS011;20704;51.260;22.558;2024-03-02T01:49:36;54.30;;;23.67;;
34459;SDS011;20704;51.260;22.558;2024-03-02T01:51:40;51.17;;;24.15;;
34459;SDS011;20704;51.260;22.558;2024-03-02T01:53:43;43.08;;;21.23;;
34459;SDS011;20704;51.260;22.558;2024-03-02T01:55:46;47.55;;;22.10;;
34459;SDS011;20704;51.260;22.558;2024-03-02T01:57:49;50.78;;;23.65;;
34459;SDS011;20704;51.260;22.558;2024-03-02T01:59:56;46.95;;;22.83;;
34459;SDS011;20704;51.260;22.558;2024-03-02T02:01:59;53.05;;;22.33;;
34459;SDS011;20704;51.260;22.558;2024-03-02T02:04:03;46.78;;;21.40;;
34459;SDS011;20704;51.260;22.558;2024-03-02T02:06:06;53.03;;;22.35;;
34459;SDS011;20704;51.260;22.558;2024-03-02T02:08:10;51.40;;;24.35;;
34459;SDS011;20704;51.260;22.558;2024-03-02T02:10:14;53.47;;;22.75;;
34459;SDS011;20704;51.260;22.558;2024-03-02T02:12:18;54.90;;;21.83;;
34459;SDS011;20704;51.260;22.558;2024-03-02T02:14:21;53.22;;;23.00;;
34459;SDS011;20704;51.260;22.558;2024-03-02T02:16:25;58.22;;;25.33;;
34459;SDS011;20704;51.260;22.558;2024-03-02T02:18:29;57.92;;;23.45;;
34459;SDS011;20704;51.260;22.558;2024-03-02T02:20:33;52.17;;;21.98;;
34459;SDS011;20704;51.260;22.558;2024-03-02T02:22:35;58.58;;;23.95;;
34459;SDS011;20704;51.260;22.558;2024-03-02T02:24:39;53.63;;;23.17;;
34459;SDS011;20704;51.260;22.558;2024-03-02T02:26:43;58.17;;;25.10;;
34459;SDS011;20704;51.260;22.558;2024-03-02T02:28:46;51.95;;;22.52;;
34459;SDS011;20704;51.260;22.558;2024-03-02T02:30:49;54.60;;;24.00;;
34459;SDS011;20704;51.260;22.558;2024-03-02T02:32:52;57.40;;;25.05;;
34459;SDS011;20704;51.260;22.558;2024-03-02T02:34:55;64.53;;;24.55;;
34459;SDS011;20704;51.260;22.558;2024-03-02T02:36:59;68.85;;;27.30;;
34459;SDS011;20704;51.260;22.558;2024-03-02T02:39:02;64.30;;;26.95;;
34459;SDS011;20704;51.260;22.558;2024-03-02T02:41:06;65.45;;;25.23;;
34459;SDS011;20704;51.260;22.558;2024-03-02T02:43:09;64.20;;;26.33;;
34459;SDS011;20704;51.260;22.558;2024-03-02T02:45:15;68.53;;;26.40;;
34459;SDS011;20704;51.260;22.558;2024-03-02T02:47:21;69.20;;;27.65;;
34459;SDS011;20704;51.260;22.558;2024-03-02T02:49:23;67.70;;;26.17;;
34459;SDS011;20704;51.260;22.558;2024-03-02T02:51:26;62.72;;;27.55;;
34459;SDS011;20704;51.260;22.558;2024-03-02T02:53:29;76.68;;;31.48;;
34459;SDS011;20704;51.260;22.558;2024-03-02T02:55:32;75.15;;;27.15;;
34459;SDS011;20704;51.260;22.558;2024-03-02T02:57:35;66.53;;;27.05;;
34459;SDS011;20704;51.260;22.558;2024-03-02T02:59:40;75.18;;;28.52;;
34459;SDS011;20704;51.260;22.558;2024-03-02T03:01:43;68.72;;;27.23;;
34459;SDS011;20704;51.260;22.558;2024-03-02T03:03:46;77.30;;;29.75;;
34459;SDS011;20704;51.260;22.558;2024-03-02T03:05:49;63.97;;;26.88;;
34459;SDS011;20704;51.260;22.558;2024-03-02T03:07:52;69.03;;;27.15;;
34459;SDS011;20704;51.260;22.558;2024-03-02T03:09:55;76.78;;;28.33;;
34459;SDS011;20704;51.260;22.558;2024-03-02T03:11:57;65.78;;;24.55;;
34459;SDS011;20704;51.260;22.558;2024-03-02T03:14:00;73.50;;;28.83;;
34459;SDS011;20704;51.260;22.558;2024-03-02T03:16:04;70.00;;;26.27;;
34459;SDS011;20704;51.260;22.558;2024-03-02T03:18:07;80.10;;;27.20;;
34459;SDS011;20704;51.260;22.558;2024-03-02T03:20:12;72.82;;;28.92;;
34459;SDS011;20704;51.260;22.558;2024-03-02T03:22:16;67.28;;;26.60;;
34459;SDS011;20704;51.260;22.558;2024-03-02T03:24:20;71.70;;;26.65;;
34459;SDS011;20704;51.260;22.558;2024-03-02T03:26:23;67.55;;;25.77;;
34459;SDS011;20704;51.260;22.558;2024-03-02T03:28:27;66.30;;;25.13;;
34459;SDS011;20704;51.260;22.558;2024-03-02T03:30:30;55.85;;;24.77;;
34459;SDS011;20704;51.260;22.558;2024-03-02T03:32:33;62.83;;;24.20;;
34459;SDS011;20704;51.260;22.558;2024-03-02T03:34:36;61.72;;;26.52;;
34459;SDS011;20704;51.260;22.558;2024-03-02T03:36:38;70.15;;;27.45;;
34459;SDS011;20704;51.260;22.558;2024-03-02T03:38:41;68.28;;;26.48;;
34459;SDS011;20704;51.260;22.558;2024-03-02T03:40:43;77.05;;;27.38;;
34459;SDS011;20704;51.260;22.558;2024-03-02T03:42:47;66.78;;;25.40;;
34459;SDS011;20704;51.260;22.558;2024-03-02T03:44:50;79.38;;;30.35;;
34459;SDS011;20704;51.260;22.558;2024-03-02T03:46:53;74.00;;;29.02;;
34459;SDS011;20704;51.260;22.558;2024-03-02T03:48:56;78.93;;;28.25;;
34459;SDS011;20704;51.260;22.558;2024-03-02T03:50:59;75.82;;;27.88;;
34459;SDS011;20704;51.260;22.558;2024-03-02T03:53:01;70.15;;;28.27;;
34459;SDS011;20704;51.260;22.558;2024-03-02T03:55:04;69.13;;;28.27;;
34459;SDS011;20704;51.260;22.558;2024-03-02T03:57:07;85.25;;;28.80;;
34459;SDS011;20704;51.260;22.558;2024-03-02T03:59:17;71.65;;;27.30;;
34459;SDS011;20704;51.260;22.558;2024-03-02T04:01:19;71.53;;;28.40;;
34459;SDS011;20704;51.260;22.558;2024-03-02T04:03:24;67.13;;;26.95;;
34459;SDS011;20704;51.260;22.558;2024-03-02T04:05:27;69.10;;;27.73;;
34459;SDS011;20704;51.260;22.558;2024-03-02T04:07:29;68.20;;;24.80;;
34459;SDS011;20704;51.260;22.558;2024-03-02T04:09:32;71.30;;;26.58;;
34459;SDS011;20704;51.260;22.558;2024-03-02T04:11:35;75.32;;;27.38;;
34459;SDS011;20704;51.260;22.558;2024-03-02T04:13:40;73.07;;;27.88;;
34459;SDS011;20704;51.260;22.558;2024-03-02T04:15:42;79.80;;;30.45;;
34459;SDS011;20704;51.260;22.558;2024-03-02T04:17:45;73.82;;;27.92;;
34459;SDS011;20704;51.260;22.558;2024-03-02T04:19:48;68.43;;;26.13;;
34459;SDS011;20704;51.260;22.558;2024-03-02T04:21:52;78.25;;;29.13;;
34459;SDS011;20704;51.260;22.558;2024-03-02T04:23:57;76.88;;;28.52;;
34459;SDS011;20704;51.260;22.558;2024-03-02T04:26:02;77.95;;;27.80;;
34459;SDS011;20704;51.260;22.558;2024-03-02T04:28:06;70.45;;;27.65;;
34459;SDS011;20704;51.260;22.558;2024-03-02T04:30:09;80.85;;;28.70;;
34459;SDS011;20704;51.260;22.558;2024-03-02T04:32:12;82.28;;;27.80;;
34459;SDS011;20704;51.260;22.558;2024-03-02T04:34:17;73.47;;;27.48;;
34459;SDS011;20704;51.260;22.558;2024-03-02T04:36:19;74.60;;;27.65;;
34459;SDS011;20704;51.260;22.558;2024-03-02T04:38:23;65.28;;;26.13;;
34459;SDS011;20704;51.260;22.558;2024-03-02T04:40:25;82.47;;;29.42;;
34459;SDS011;20704;51.260;22.558;2024-03-02T04:42:28;70.70;;;29.58;;
34459;SDS011;20704;51.260;22.558;2024-03-02T04:44:31;83.07;;;29.00;;
34459;SDS011;20704;51.260;22.558;2024-03-02T04:46:35;78.75;;;25.70;;
34459;SDS011;20704;51.260;22.558;2024-03-02T04:48:37;71.07;;;27.15;;
34459;SDS011;20704;51.260;22.558;2024-03-02T04:50:40;75.13;;;28.27;;
34459;SDS011;20704;51.260;22.558;2024-03-02T04:52:43;70.82;;;24.70;;
34459;SDS011;20704;51.260;22.558;2024-03-02T04:54:46;76.72;;;28.35;;
34459;SDS011;20704;51.260;22.558;2024-03-02T04:57:07;79.53;;;26.40;;
34459;SDS011;20704;51.260;22.558;2024-03-02T04:59:10;86.75;;;30.88;;
34459;SDS011;20704;51.260;22.558;2024-03-02T05:01:12;75.32;;;27.00;;
34459;SDS011;20704;51.260;22.558;2024-03-02T05:03:15;76.50;;;28.60;;
34459;SDS011;20704;51.260;22.558;2024-03-02T05:05:18;77.47;;;29.65;;
34459;SDS011;20704;51.260;22.558;2024-03-02T05:07:24;75.07;;;29.10;;
34459;SDS011;20704;51.260;22.558;2024-03-02T05:09:26;84.40;;;26.38;;
34459;SDS011;20704;51.260;22.558;2024-03-02T05:11:29;77.40;;;28.08;;
34459;SDS011;20704;51.260;22.558;2024-03-02T05:13:52;62.03;;;26.58;;
34459;SDS011;20704;51.260;22.558;2024-03-02T05:15:57;82.22;;;28.67;;
34459;SDS011;20704;51.260;22.558;2024-03-02T05:18:00;73.55;;;25.98;;
34459;SDS011;20704;51.260;22.558;2024-03-02T05:20:07;81.57;;;26.60;;
34459;SDS011;20704;51.260;22.558;2024-03-02T05:22:10;74.97;;;27.80;;
34459;SDS011;20704;51.260;22.558;2024-03-02T05:24:12;74.22;;;25.10;;
34459;SDS011;20704;51.260;22.558;2024-03-02T05:26:15;81.20;;;29.60;;
34459;SDS011;20704;51.260;22.558;2024-03-02T05:28:18;71.60;;;26.33;;
34459;SDS011;20704;51.260;22.558;2024-03-02T05:30:21;62.95;;;25.20;;
34459;SDS011;20704;51.260;22.558;2024-03-02T05:32:24;77.00;;;29.55;;
34459;SDS011;20704;51.260;22.558;2024-03-02T05:34:27;83.22;;;28.33;;
34459;SDS011;20704;51.260;22.558;2024-03-02T05:36:29;71.10;;;27.67;;
34459;SDS011;20704;51.260;22.558;2024-03-02T05:38:36;71.63;;;25.38;;
34459;SDS011;20704;51.260;22.558;2024-03-02T05:40:39;68.38;;;26.00;;
34459;SDS011;20704;51.260;22.558;2024-03-02T05:42:41;71.82;;;26.67;;
34459;SDS011;20704;51.260;22.558;2024-03-02T05:44:44;71.72;;;24.98;;
34459;SDS011;20704;51.260;22.558;2024-03-02T05:46:47;69.20;;;26.83;;
34459;SDS011;20704;51.260;22.558;2024-03-02T05:48:50;70.80;;;29.67;;
34459;SDS011;20704;51.260;22.558;2024-03-02T05:50:52;66.25;;;27.85;;
34459;SDS011;20704;51.260;22.558;2024-03-02T05:52:57;61.72;;;28.20;;
34459;SDS011;20704;51.260;22.558;2024-03-02T05:55:00;71.65;;;27.55;;
34459;SDS011;20704;51.260;22.558;2024-03-02T05:57:03;66.35;;;27.67;;
34459;SDS011;20704;51.260;22.558;2024-03-02T05:59:19;68.05;;;26.35;;
34459;SDS011;20704;51.260;22.558;2024-03-02T06:01:21;73.00;;;26.73;;
34459;SDS011;20704;51.260;22.558;2024-03-02T06:03:30;65.75;;;27.02;;
34459;SDS011;20704;51.260;22.558;2024-03-02T06:05:35;76.15;;;26.50;;
34459;SDS011;20704;51.260;22.558;2024-03-02T06:07:37;63.72;;;23.52;;
34459;SDS011;20704;51.260;22.558;2024-03-02T06:09:40;57.83;;;24.95;;
34459;SDS011;20704;51.260;22.558;2024-03-02T06:11:43;56.53;;;26.02;;
34459;SDS011;20704;51.260;22.558;2024-03-02T06:13:45;56.28;;;24.45;;
34459;SDS011;20704;51.260;22.558;2024-03-02T06:15:48;57.20;;;26.50;;
34459;SDS011;20704;51.260;22.558;2024-03-02T06:17:51;59.35;;;24.83;;
34459;SDS011;20704;51.260;22.558;2024-03-02T06:19:53;60.78;;;24.80;;
34459;SDS011;20704;51.260;22.558;2024-03-02T06:21:57;69.40;;;26.90;;
34459;SDS011;20704;51.260;22.558;2024-03-02T06:23:59;67.18;;;27.10;;
34459;SDS011;20704;51.260;22.558;2024-03-02T06:26:03;58.22;;;25.70;;
34459;SDS011;20704;51.260;22.558;2024-03-02T06:28:05;59.83;;;25.70;;
34459;SDS011;20704;51.260;22.558;2024-03-02T06:30:09;59.38;;;25.30;;
34459;SDS011;20704;51.260;22.558;2024-03-02T06:32:12;59.28;;;25.27;;
34459;SDS011;20704;51.260;22.558;2024-03-02T06:34:16;53.60;;;23.60;;
34459;SDS011;20704;51.260;22.558;2024-03-02T06:36:19;66.32;;;25.38;;
34459;SDS011;20704;51.260;22.558;2024-03-02T06:38:22;53.13;;;25.83;;
34459;SDS011;20704;51.260;22.558;2024-03-02T06:40:24;61.42;;;25.02;;
34459;SDS011;20704;51.260;22.558;2024-03-02T06:42:27;52.13;;;24.38;;
34459;SDS011;20704;51.260;22.558;2024-03-02T06:44:35;60.53;;;24.42;;
34459;SDS011;20704;51.260;22.558;2024-03-02T06:46:38;56.63;;;22.13;;
34459;SDS011;20704;51.260;22.558;2024-03-02T06:48:41;54.33;;;23.85;;
34459;SDS011;20704;51.260;22.558;2024-03-02T06:50:43;48.05;;;24.40;;
34459;SDS011;20704;51.260;22.558;2024-03-02T06:52:47;55.72;;;24.85;;
34459;SDS011;20704;51.260;22.558;2024-03-02T06:54:49;55.58;;;24.80;;
34459;SDS011;20704;51.260;22.558;2024-03-02T06:56:52;53.90;;;23.60;;
34459;SDS011;20704;51.260;22.558;2024-03-02T06:58:55;50.22;;;23.33;;
34459;SDS011;20704;51.260;22.558;2024-03-02T07:00:58;44.90;;;21.63;;
34459;SDS011;20704;51.260;22.558;2024-03-02T07:03:02;54.33;;;21.35;;
34459;SDS011;20704;51.260;22.558;2024-03-02T07:05:05;47.22;;;21.17;;
34459;SDS011;20704;51.260;22.558;2024-03-02T07:07:09;50.80;;;21.65;;
34459;SDS011;20704;51.260;22.558;2024-03-02T07:09:11;48.78;;;22.50;;
34459;SDS011;20704;51.260;22.558;2024-03-02T07:11:14;47.70;;;21.35;;
34459;SDS011;20704;51.260;22.558;2024-03-02T07:13:16;49.90;;;21.20;;
34459;SDS011;20704;51.260;22.558;2024-03-02T07:15:19;45.90;;;21.55;;
34459;SDS011;20704;51.260;22.558;2024-03-02T07:17:37;43.28;;;19.95;;
34459;SDS011;20704;51.260;22.558;2024-03-02T07:19:40;48.25;;;20.55;;
34459;SDS011;20704;51.260;22.558;2024-03-02T07:21:42;44.90;;;19.95;;
34459;SDS011;20704;51.260;22.558;2024-03-02T07:23:45;50.35;;;22.08;;
34459;SDS011;20704;51.260;22.558;2024-03-02T07:25:47;44.60;;;19.15;;
34459;SDS011;20704;51.260;22.558;2024-03-02T07:27:52;38.33;;;17.80;;
34459;SDS011;20704;51.260;22.558;2024-03-02T07:29:58;32.70;;;16.83;;
34459;SDS011;20704;51.260;22.558;2024-03-02T07:32:01;38.03;;;19.50;;
34459;SDS011;20704;51.260;22.558;2024-03-02T07:34:03;32.58;;;16.83;;
34459;SDS011;20704;51.260;22.558;2024-03-02T07:36:06;37.88;;;15.82;;
34459;SDS011;20704;51.260;22.558;2024-03-02T07:38:09;32.17;;;16.20;;
34459;SDS011;20704;51.260;22.558;2024-03-02T07:40:14;35.33;;;18.45;;
34459;SDS011;20704;51.260;22.558;2024-03-02T07:42:17;33.47;;;17.75;;
34459;SDS011;20704;51.260;22.558;2024-03-02T07:44:19;33.58;;;17.73;;
34459;SDS011;20704;51.260;22.558;2024-03-02T07:46:22;33.60;;;17.73;;
34459;SDS011;20704;51.260;22.558;2024-03-02T07:48:25;32.15;;;17.85;;
34459;SDS011;20704;51.260;22.558;2024-03-02T07:50:28;34.88;;;16.25;;
34459;SDS011;20704;51.260;22.558;2024-03-02T07:52:32;35.95;;;16.40;;
34459;SDS011;20704;51.260;22.558;2024-03-02T07:54:35;37.90;;;17.35;;
34459;SDS011;20704;51.260;22.558;2024-03-02T07:56:38;28.00;;;14.20;;
34459;SDS011;20704;51.260;22.558;2024-03-02T07:58:40;30.90;;;15.15;;
34459;SDS011;20704;51.260;22.558;2024-03-02T08:00:44;30.92;;;16.00;;
34459;SDS011;20704;51.260;22.558;2024-03-02T08:02:46;37.25;;;17.08;;
34459;SDS011;20704;51.260;22.558;2024-03-02T08:04:49;32.08;;;16.60;;
34459;SDS011;20704;51.260;22.558;2024-03-02T08:06:52;35.80;;;16.98;;
34459;SDS011;20704;51.260;22.558;2024-03-02T08:08:57;32.60;;;15.52;;
34459;SDS011;20704;51.260;22.558;2024-03-02T08:11:00;30.58;;;15.70;;
34459;SDS011;20704;51.260;22.558;2024-03-02T08:13:03;28.10;;;15.68;;
34459;SDS011;20704;51.260;22.558;2024-03-02T08:15:05;38.22;;;16.30;;
34459;SDS011;20704;51.260;22.558;2024-03-02T08:17:09;27.30;;;15.52;;
34459;SDS011;20704;51.260;22.558;2024-03-02T08:19:13;27.83;;;15.77;;
34459;SDS011;20704;51.260;22.558;2024-03-02T08:21:16;28.73;;;15.95;;
34459;SDS011;20704;51.260;22.558;2024-03-02T08:23:18;29.75;;;16.13;;
34459;SDS011;20704;51.260;22.558;2024-03-02T08:25:21;40.65;;;17.17;;
34459;SDS011;20704;51.260;22.558;2024-03-02T08:27:24;33.80;;;14.98;;
34459;SDS011;20704;51.260;22.558;2024-03-02T08:29:27;32.90;;;17.05;;
34459;SDS011;20704;51.260;22.558;2024-03-02T08:31:30;26.70;;;15.25;;
34459;SDS011;20704;51.260;22.558;2024-03-02T08:33:33;32.00;;;14.95;;
34459;SDS011;20704;51.260;22.558;2024-03-02T08:35:38;31.10;;;15.35;;
34459;SDS011;20704;51.260;22.558;2024-03-02T08:37:41;28.85;;;16.45;;
34459;SDS011;20704;51.260;22.558;2024-03-02T08:39:45;33.22;;;15.93;;
34459;SDS011;20704;51.260;22.558;2024-03-02T08:41:48;30.30;;;15.82;;
34459;SDS011;20704;51.260;22.558;2024-03-02T08:43:51;32.00;;;14.95;;
34459;SDS011;20704;51.260;22.558;2024-03-02T08:45:54;30.80;;;15.90;;
34459;SDS011;20704;51.260;22.558;2024-03-02T08:47:56;31.10;;;15.27;;
34459;SDS011;20704;51.260;22.558;2024-03-02T08:49:59;34.92;;;15.48;;
34459;SDS011;20704;51.260;22.558;2024-03-02T08:52:03;32.88;;;15.55;;
34459;SDS011;20704;51.260;22.558;2024-03-02T08:54:06;29.30;;;14.20;;
34459;SDS011;20704;51.260;22.558;2024-03-02T08:56:09;31.60;;;15.93;;
34459;SDS011;20704;51.260;22.558;2024-03-02T08:58:12;35.10;;;15.63;;
34459;SDS011;20704;51.260;22.558;2024-03-02T09:00:16;33.50;;;15.55;;
34459;SDS011;20704;51.260;22.558;2024-03-02T09:02:19;39.20;;;18.08;;
34459;SDS011;20704;51.260;22.558;2024-03-02T09:04:22;36.33;;;16.15;;
34459;SDS011;20704;51.260;22.558;2024-03-02T09:06:29;34.15;;;16.30;;
34459;SDS011;20704;51.260;22.558;2024-03-02T09:08:31;33.78;;;16.83;;
34459;SDS011;20704;51.260;22.558;2024-03-02T09:10:33;37.03;;;17.55;;
34459;SDS011;20704;51.260;22.558;2024-03-02T09:12:36;33.97;;;15.68;;
34459;SDS011;20704;51.260;22.558;2024-03-02T09:14:59;30.33;;;15.73;;
34459;SDS011;20704;51.260;22.558;2024-03-02T09:17:02;32.97;;;16.02;;
34459;SDS011;20704;51.260;22.558;2024-03-02T09:19:05;31.20;;;15.20;;
34459;SDS011;20704;51.260;22.558;2024-03-02T09:21:08;34.90;;;16.75;;
34459;SDS011;20704;51.260;22.558;2024-03-02T09:23:12;33.13;;;16.55;;
34459;SDS011;20704;51.260;22.558;2024-03-02T09:25:14;38.42;;;16.30;;
34459;SDS011;20704;51.260;22.558;2024-03-02T09:27:18;29.92;;;16.33;;
34459;SDS011;20704;51.260;22.558;2024-03-02T09:29:20;33.20;;;15.73;;
34459;SDS011;20704;51.260;22.558;2024-03-02T09:31:23;35.38;;;17.27;;
34459;SDS011;20704;51.260;22.558;2024-03-02T09:33:26;33.42;;;15.90;;
34459;SDS011;20704;51.260;22.558;2024-03-02T09:35:29;32.58;;;16.65;;
34459;SDS011;20704;51.260;22.558;2024-03-02T09:37:31;26.13;;;15.77;;
34459;SDS011;20704;51.260;22.558;2024-03-02T09:39:34;35.88;;;17.40;;
34459;SDS011;20704;51.260;22.558;2024-03-02T09:41:37;33.30;;;17.13;;
34459;SDS011;20704;51.260;22.558;2024-03-02T09:43:40;32.20;;;16.48;;
34459;SDS011;20704;51.260;22.558;2024-03-02T09:45:43;31.38;;;15.75;;
34459;SDS011;20704;51.260;22.558;2024-03-02T09:47:47;30.85;;;15.80;;
34459;SDS011;20704;51.260;22.558;2024-03-02T09:49:49;29.15;;;16.70;;
34459;SDS011;20704;51.260;22.558;2024-03-02T09:51:51;33.25;;;15.68;;
34459;SDS011;20704;51.260;22.558;2024-03-02T09:53:55;32.90;;;17.17;;
34459;SDS011;20704;51.260;22.558;2024-03-02T09:56:13;26.55;;;15.18;;
34459;SDS011;20704;51.260;22.558;2024-03-02T09:58:17;30.40;;;15.80;;
34459;SDS011;20704;51.260;22.558;2024-03-02T10:00:20;34.40;;;15.93;;
34459;SDS011;20704;51.260;22.558;2024-03-02T10:02:22;30.90;;;16.33;;
34459;SDS011;20704;51.260;22.558;2024-03-02T10:04:28;31.20;;;15.20;;
34459;SDS011;20704;51.260;22.558;2024-03-02T10:06:30;42.30;;;16.67;;
34459;SDS011;20704;51.260;22.558;2024-03-02T10:08:53;32.22;;;15.70;;
34459;SDS011;20704;51.260;22.558;2024-03-02T10:10:59;34.63;;;15.93;;
34459;SDS011;20704;51.260;22.558;2024-03-02T10:13:05;29.63;;;15.63;;
34459;SDS011;20704;51.260;22.558;2024-03-02T10:15:08;28.10;;;16.05;;
34459;SDS011;20704;51.260;22.558;2024-03-02T10:17:12;29.92;;;15.90;;
34459;SDS011;20704;51.260;22.558;2024-03-02T10:19:19;28.90;;;15.50;;
34459;SDS011;20704;51.260;22.558;2024-03-02T10:21:28;34.72;;;17.25;;
34459;SDS011;20704;51.260;22.558;2024-03-02T10:23:30;35.40;;;16.20;;
34459;SDS011;20704;51.260;22.558;2024-03-02T10:25:33;31.80;;;16.90;;
34459;SDS011;20704;51.260;22.558;2024-03-02T10:27:39;28.52;;;14.52;;
34459;SDS011;20704;51.260;22.558;2024-03-02T10:29:41;28.98;;;15.75;;
34459;SDS011;20704;51.260;22.558;2024-03-02T10:31:47;32.03;;;16.65;;
34459;SDS011;20704;51.260;22.558;2024-03-02T10:33:49;28.27;;;15.48;;
34459;SDS011;20704;51.260;22.558;2024-03-02T10:35:52;27.02;;;15.15;;
34459;SDS011;20704;51.260;22.558;2024-03-02T10:37:55;31.27;;;15.63;;
34459;SDS011;20704;51.260;22.558;2024-03-02T10:39:57;31.20;;;16.70;;
34459;SDS011;20704;51.260;22.558;2024-03-02T10:42:07;31.43;;;15.17;;
34459;SDS011;20704;51.260;22.558;2024-03-02T10:44:10;30.05;;;15.93;;
34459;SDS011;20704;51.260;22.558;2024-03-02T10:46:13;25.60;;;14.35;;
34459;SDS011;20704;51.260;22.558;2024-03-02T10:48:18;29.20;;;15.02;;
34459;SDS011;20704;51.260;22.558;2024-03-02T10:50:23;27.35;;;14.45;;
34459;SDS011;20704;51.260;22.558;2024-03-02T10:52:26;31.15;;;16.13;;
34459;SDS011;20704;51.260;22.558;2024-03-02T10:54:29;36.42;;;16.55;;
34459;SDS011;20704;51.260;22.558;2024-03-02T10:58:42;28.55;;;15.30;;
34459;SDS011;20704;51.260;22.558;2024-03-02T11:00:45;32.70;;;15.27;;
34459;SDS011;20704;51.260;22.558;2024-03-02T11:02:51;31.38;;;15.77;;
34459;SDS011;20704;51.260;22.558;2024-03-02T11:04:59;27.77;;;15.23;;
34459;SDS011;20704;51.260;22.558;2024-03-02T11:07:10;29.52;;;14.90;;
34459;SDS011;20704;51.260;22.558;2024-03-02T11:09:13;25.50;;;14.63;;
34459;SDS011;20704;51.260;22.558;2024-03-02T11:11:18;30.23;;;15.50;;
34459;SDS011;20704;51.260;22.558;2024-03-02T11:13:29;27.75;;;13.95;;
34459;SDS011;20704;51.260;22.558;2024-03-02T11:15:33;34.95;;;16.08;;
34459;SDS011;20704;51.260;22.558;2024-03-02T11:17:38;37.88;;;16.67;;
34459;SDS011;20704;51.260;22.558;2024-03-02T11:19:42;27.38;;;14.45;;
34459;SDS011;20704;51.260;22.558;2024-03-02T11:21:46;30.58;;;15.15;;
34459;SDS011;20704;51.260;22.558;2024-03-02T11:23:49;26.95;;;14.55;;
34459;SDS011;20704;51.260;22.558;2024-03-02T11:25:52;25.42;;;13.88;;
34459;SDS011;20704;51.260;22.558;2024-03-02T11:29:57;27.40;;;13.65;;
34459;SDS011;20704;51.260;22.558;2024-03-02T11:32:01;25.35;;;13.57;;
34459;SDS011;20704;51.260;22.558;2024-03-02T11:36:37;26.25;;;13.90;;
34459;SDS011;20704;51.260;22.558;2024-03-02T11:38:40;31.17;;;13.98;;
34459;SDS011;20704;51.260;22.558;2024-03-02T11:40:47;24.40;;;13.07;;
34459;SDS011;20704;51.260;22.558;2024-03-02T11:42:49;19.65;;;13.13;;
34459;SDS011;20704;51.260;22.558;2024-03-02T11:44:52;27.52;;;13.90;;
34459;SDS011;20704;51.260;22.558;2024-03-02T11:46:59;25.92;;;14.25;;
34459;SDS011;20704;51.260;22.558;2024-03-02T11:49:07;27.05;;;14.80;;
34459;SDS011;20704;51.260;22.558;2024-03-02T11:51:11;27.50;;;15.45;;
34459;SDS011;20704;51.260;22.558;2024-03-02T11:53:14;27.75;;;15.70;;
34459;SDS011;20704;51.260;22.558;2024-03-02T11:55:17;27.08;;;14.05;;
34459;SDS011;20704;51.260;22.558;2024-03-02T11:57:21;26.65;;;14.02;;
34459;SDS011;20704;51.260;22.558;2024-03-02T11:59:25;27.20;;;15.40;;
34459;SDS011;20704;51.260;22.558;2024-03-02T12:01:28;27.70;;;15.38;;
34459;SDS011;20704;51.260;22.558;2024-03-02T12:03:31;30.63;;;14.93;;
34459;SDS011;20704;51.260;22.558;2024-03-02T12:05:37;31.00;;;16.27;;